Time;durP1;ratioP1;P1;durP2;ratioP2;P2;SDS_P1;SDS_P2;PMS_P1;PMS_P2;Temp;Humidity;BMP_temperature;BMP_pressure;BME280_temperature;BME280_humidity;BME280_pressure;Samples;Min_cycle;Max_cycle;Signal;HPM_P1;HPM_P2
2023/09/15 00:00:24;;;;;;;3.40;1.77;;;;;;;;;;488232;28;1324;-82
2023/09/15 00:00:40;;;;;;;3.55;1.95;;;;;;;;;;489124;28;1208;-81
2023/09/15 00:00:56;;;;;;;5.20;2.05;;;;;;;;;;488112;28;1042;-81
2023/09/15 00:01:12;;;;;;;5.07;2.00;;;;;;;;;;489822;28;1395;-81
2023/09/15 00:01:27;;;;;;;6.32;2.13;;;;;;;;;;490766;28;1212;-81
2023/09/15 00:01:43;;;;;;;6.03;2.08;;;;;;;;;;481439;29;1277;-81
2023/09/15 00:02:01;;;;;;;3.67;2.10;;;;;;;;;;479130;28;1411;-82
2023/09/15 00:02:18;;;;;;;4.78;2.40;;;;;;;;;;484085;28;1076;-81
2023/09/15 00:02:35;;;;;;;4.97;2.17;;;;;;;;;;481072;29;1357;-81
2023/09/15 00:02:56;;;;;;;4.00;1.73;;;;;;;;;;484439;28;1172;-81
2023/09/15 00:03:12;;;;;;;4.70;1.92;;;;;;;;;;490819;28;1226;-81
2023/09/15 00:03:27;;;;;;;5.07;2.00;;;;;;;;;;489406;28;1196;-81
2023/09/15 00:03:43;;;;;;;4.17;2.00;;;;;;;;;;487575;28;1302;-81
2023/09/15 00:04:02;;;;;;;3.40;1.95;;;;;;;;;;486064;28;1090;-81
2023/09/15 00:04:18;;;;;;;3.75;2.10;;;;;;;;;;493601;28;1040;-81
2023/09/15 00:04:33;;;;;;;4.80;2.10;;;;;;;;;;487599;28;1154;-81
2023/09/15 00:04:51;;;;;;;4.38;1.90;;;;;;;;;;488533;28;1349;-81
2023/09/15 00:05:13;;;;;;;3.38;1.80;;;;;;;;;;488483;28;1367;-81
2023/09/15 00:05:33;;;;;;;4.30;1.95;;;;;;;;;;493585;28;1027;-81
2023/09/15 00:05:49;;;;;;;5.45;2.00;;;;;;;;;;490813;28;1358;-82
2023/09/15 00:06:05;;;;;;;4.47;2.10;;;;;;;;;;491558;28;1113;-82
2023/09/15 00:06:20;;;;;;;4.45;2.10;;;;;;;;;;493312;28;1389;-81
2023/09/15 00:06:36;;;;;;;4.15;1.90;;;;;;;;;;492109;28;2458;-81
2023/09/15 00:06:52;;;;;;;4.10;1.97;;;;;;;;;;494247;28;1070;-81
2023/09/15 00:07:08;;;;;;;4.18;2.10;;;;;;;;;;494279;28;1259;-81
2023/09/15 00:07:25;;;;;;;4.00;2.13;;;;;;;;;;492306;28;1198;-81
2023/09/15 00:07:41;;;;;;;4.22;1.98;;;;;;;;;;491390;28;1179;-81
2023/09/15 00:08:00;;;;;;;3.40;1.90;;;;;;;;;;489078;28;1432;-81
2023/09/15 00:08:17;;;;;;;3.30;1.92;;;;;;;;;;493952;28;1359;-81
2023/09/15 00:08:33;;;;;;;2.92;1.80;;;;;;;;;;485352;28;1339;-81
2023/09/15 00:08:50;;;;;;;3.67;1.80;;;;;;;;;;485742;28;1446;-81
2023/09/15 00:09:25;;;;;;;4.57;1.90;;;;;;;;;;487474;28;1259;-81
2023/09/15 00:09:41;;;;;;;4.22;2.00;;;;;;;;;;488072;28;990;-81
2023/09/15 00:09:59;;;;;;;4.00;2.00;;;;;;;;;;491719;28;1077;-81
2023/09/15 00:10:15;;;;;;;3.17;1.85;;;;;;;;;;492270;28;1252;-81
2023/09/15 00:10:31;;;;;;;3.08;1.80;;;;;;;;;;479660;28;1026;-81
2023/09/15 00:10:48;;;;;;;3.90;2.00;;;;;;;;;;478348;29;1306;-81
2023/09/15 00:11:03;;;;;;;3.33;1.90;;;;;;;;;;479169;28;1082;-81
2023/09/15 00:11:22;;;;;;;2.80;1.77;;;;;;;;;;485682;28;1201;-81
2023/09/15 00:11:40;;;;;;;2.70;1.80;;;;;;;;;;490521;28;1325;-81
2023/09/15 00:11:56;;;;;;;3.67;2.00;;;;;;;;;;488359;28;1123;-81
2023/09/15 00:12:13;;;;;;;4.67;2.07;;;;;;;;;;490493;28;1300;-81
2023/09/15 00:12:28;;;;;;;3.38;1.80;;;;;;;;;;490301;28;1287;-81
2023/09/15 00:12:44;;;;;;;3.47;1.80;;;;;;;;;;489006;28;1346;-81
2023/09/15 00:13:00;;;;;;;3.57;1.87;;;;;;;;;;486260;28;1088;-81
2023/09/15 00:13:15;;;;;;;3.10;1.73;;;;;;;;;;492806;28;1407;-81
2023/09/15 00:13:32;;;;;;;3.17;1.75;;;;;;;;;;492022;28;1274;-81
2023/09/15 00:13:47;;;;;;;4.35;1.88;;;;;;;;;;491311;28;1021;-81
2023/09/15 00:14:03;;;;;;;4.47;2.05;;;;;;;;;;489168;28;1415;-81
2023/09/15 00:14:19;;;;;;;3.80;2.00;;;;;;;;;;493797;28;1049;-81
2023/09/15 00:14:34;;;;;;;4.47;2.05;;;;;;;;;;489513;28;1121;-81
2023/09/15 00:14:50;;;;;;;4.13;2.08;;;;;;;;;;486420;28;832;-81
2023/09/15 00:15:07;;;;;;;3.63;1.97;;;;;;;;;;490720;28;1304;-81
2023/09/15 00:15:22;;;;;;;3.45;1.90;;;;;;;;;;493243;28;1362;-82
2023/09/15 00:15:38;;;;;;;3.13;1.83;;;;;;;;;;489624;28;998;-82
2023/09/15 00:15:54;;;;;;;3.73;1.97;;;;;;;;;;490988;28;1339;-82
2023/09/15 00:16:10;;;;;;;4.15;1.98;;;;;;;;;;490525;28;1239;-81
2023/09/15 00:16:26;;;;;;;3.22;1.83;;;;;;;;;;488945;28;1431;-81
2023/09/15 00:16:43;;;;;;;4.30;1.92;;;;;;;;;;487060;28;1286;-81
2023/09/15 00:16:59;;;;;;;4.20;1.90;;;;;;;;;;486682;28;1309;-81
2023/09/15 00:17:14;;;;;;;3.23;2.00;;;;;;;;;;493020;28;973;-81
2023/09/15 00:17:30;;;;;;;4.32;2.10;;;;;;;;;;493096;28;1192;-81
2023/09/15 00:17:46;;;;;;;4.13;1.83;;;;;;;;;;489165;28;1167;-81
2023/09/15 00:18:01;;;;;;;3.60;1.80;;;;;;;;;;490286;28;1419;-80
2023/09/15 00:18:20;;;;;;;3.58;1.90;;;;;;;;;;493330;28;1316;-80
2023/09/15 00:18:36;;;;;;;2.90;1.75;;;;;;;;;;489419;28;1331;-81
2023/09/15 00:18:52;;;;;;;2.70;1.70;;;;;;;;;;488046;28;1221;-81
2023/09/15 00:19:13;;;;;;;4.07;2.00;;;;;;;;;;488854;28;927;-81
2023/09/15 00:19:28;;;;;;;5.85;2.13;;;;;;;;;;489364;28;1369;-80
2023/09/15 00:19:46;;;;;;;4.70;2.10;;;;;;;;;;485909;28;1357;-81
2023/09/15 00:20:05;;;;;;;3.92;2.00;;;;;;;;;;490733;28;1026;-81
2023/09/15 00:20:21;;;;;;;4.05;2.00;;;;;;;;;;487608;28;1346;-81
2023/09/15 00:20:37;;;;;;;4.50;2.10;;;;;;;;;;488351;28;1095;-81
2023/09/15 00:20:52;;;;;;;4.93;2.10;;;;;;;;;;486710;28;1194;-81
2023/09/15 00:21:09;;;;;;;4.60;2.10;;;;;;;;;;488543;28;1420;-80
2023/09/15 00:21:25;;;;;;;4.47;2.30;;;;;;;;;;491058;28;1402;-81
2023/09/15 00:21:44;;;;;;;3.75;2.00;;;;;;;;;;488805;28;1319;-81
2023/09/15 00:22:01;;;;;;;4.78;1.98;;;;;;;;;;489618;28;1104;-81
2023/09/15 00:22:16;;;;;;;4.35;2.10;;;;;;;;;;492836;28;1472;-80
2023/09/15 00:22:33;;;;;;;4.00;2.10;;;;;;;;;;491611;28;1319;-81
2023/09/15 00:22:50;;;;;;;4.38;2.13;;;;;;;;;;489531;28;1166;-82
2023/09/15 00:23:06;;;;;;;4.47;2.10;;;;;;;;;;487707;28;1082;-81
2023/09/15 00:23:21;;;;;;;4.60;2.10;;;;;;;;;;493786;28;1387;-81
2023/09/15 00:23:37;;;;;;;3.53;1.95;;;;;;;;;;490234;28;1344;-81
2023/09/15 00:23:53;;;;;;;3.70;1.80;;;;;;;;;;490127;28;1191;-81
2023/09/15 00:24:08;;;;;;;4.78;2.00;;;;;;;;;;489077;28;1057;-80
2023/09/15 00:24:24;;;;;;;4.63;2.17;;;;;;;;;;490103;28;1324;-81
2023/09/15 00:24:40;;;;;;;3.80;2.00;;;;;;;;;;489090;28;1490;-81
2023/09/15 00:24:56;;;;;;;3.10;2.08;;;;;;;;;;487786;28;1078;-81
2023/09/15 00:25:13;;;;;;;3.80;2.20;;;;;;;;;;492251;28;1230;-80
2023/09/15 00:25:30;;;;;;;4.85;2.10;;;;;;;;;;491285;28;1315;-81
2023/09/15 00:25:46;;;;;;;3.67;1.88;;;;;;;;;;491007;28;1286;-81
2023/09/15 00:26:03;;;;;;;2.80;1.85;;;;;;;;;;493865;28;1476;-80
2023/09/15 00:26:23;;;;;;;3.60;1.90;;;;;;;;;;491714;28;1505;-81
2023/09/15 00:26:40;;;;;;;5.07;2.15;;;;;;;;;;490030;28;1954;-81
2023/09/15 00:26:56;;;;;;;4.53;2.20;;;;;;;;;;489785;28;1110;-81
2023/09/15 00:27:12;;;;;;;3.80;2.03;;;;;;;;;;493053;28;1189;-80
2023/09/15 00:27:28;;;;;;;3.13;1.90;;;;;;;;;;489352;28;1267;-81
2023/09/15 00:27:43;;;;;;;3.97;1.90;;;;;;;;;;487156;28;1272;-81
2023/09/15 00:28:01;;;;;;;4.32;2.00;;;;;;;;;;489033;28;1248;-81
2023/09/15 00:28:17;;;;;;;3.60;1.95;;;;;;;;;;490354;28;1074;-81
2023/09/15 00:28:32;;;;;;;4.88;2.00;;;;;;;;;;488755;28;1385;-81
2023/09/15 00:28:48;;;;;;;4.93;2.15;;;;;;;;;;489326;28;1280;-81
2023/09/15 00:29:04;;;;;;;3.97;2.10;;;;;;;;;;483200;28;1359;-81
2023/09/15 00:29:21;;;;;;;3.90;2.10;;;;;;;;;;491194;28;1232;-80
2023/09/15 00:29:36;;;;;;;4.60;2.10;;;;;;;;;;490483;28;1043;-80
2023/09/15 00:29:52;;;;;;;4.18;1.90;;;;;;;;;;488291;28;1229;-81
2023/09/15 00:30:09;;;;;;;3.63;1.85;;;;;;;;;;489720;28;1113;-81
2023/09/15 00:30:27;;;;;;;3.67;2.00;;;;;;;;;;488530;28;1306;-81
2023/09/15 00:30:42;;;;;;;3.45;1.95;;;;;;;;;;490959;28;1464;-81
2023/09/15 00:30:59;;;;;;;3.22;1.90;;;;;;;;;;492324;28;1279;-81
2023/09/15 00:31:15;;;;;;;2.83;1.88;;;;;;;;;;489961;28;1534;-81
2023/09/15 00:31:31;;;;;;;3.15;1.88;;;;;;;;;;487337;28;1372;-81
2023/09/15 00:31:48;;;;;;;3.95;1.95;;;;;;;;;;486950;28;1232;-81
2023/09/15 00:32:05;;;;;;;4.50;1.88;;;;;;;;;;487084;28;1201;-81
2023/09/15 00:32:21;;;;;;;4.47;2.00;;;;;;;;;;491664;28;1310;-82
2023/09/15 00:32:37;;;;;;;5.07;2.13;;;;;;;;;;485997;28;1185;-81
2023/09/15 00:32:54;;;;;;;4.70;2.08;;;;;;;;;;490969;28;1235;-81
2023/09/15 00:33:10;;;;;;;3.35;1.80;;;;;;;;;;494551;28;1323;-81
2023/09/15 00:33:26;;;;;;;3.35;1.75;;;;;;;;;;490678;28;1400;-81
2023/09/15 00:33:42;;;;;;;3.00;1.80;;;;;;;;;;488314;28;1397;-81
2023/09/15 00:34:00;;;;;;;2.97;1.90;;;;;;;;;;491473;28;1251;-81
2023/09/15 00:34:16;;;;;;;3.53;2.05;;;;;;;;;;485723;28;1349;-81
2023/09/15 00:34:32;;;;;;;3.40;2.00;;;;;;;;;;490485;28;1313;-81
2023/09/15 00:34:47;;;;;;;3.53;1.90;;;;;;;;;;492353;28;1523;-82
2023/09/15 00:35:03;;;;;;;3.33;1.90;;;;;;;;;;493477;28;1370;-81
2023/09/15 00:35:22;;;;;;;2.70;1.70;;;;;;;;;;496433;28;1242;-81
2023/09/15 00:35:38;;;;;;;2.83;1.88;;;;;;;;;;495765;28;1387;-81
2023/09/15 00:35:53;;;;;;;4.03;2.10;;;;;;;;;;489835;28;1048;-81
2023/09/15 00:36:09;;;;;;;5.13;2.10;;;;;;;;;;489036;28;1197;-81
2023/09/15 00:36:24;;;;;;;4.70;2.00;;;;;;;;;;490950;28;1343;-82
2023/09/15 00:36:40;;;;;;;4.05;2.00;;;;;;;;;;490820;28;1272;-81
2023/09/15 00:36:56;;;;;;;4.35;2.00;;;;;;;;;;489079;28;1384;-81
2023/09/15 00:37:11;;;;;;;4.43;2.00;;;;;;;;;;492868;28;1091;-81
2023/09/15 00:37:27;;;;;;;3.97;1.85;;;;;;;;;;491665;28;1222;-81
2023/09/15 00:37:46;;;;;;;3.37;1.90;;;;;;;;;;495843;28;1216;-81
2023/09/15 00:38:03;;;;;;;4.25;2.00;;;;;;;;;;492071;28;1296;-81
2023/09/15 00:38:21;;;;;;;3.58;1.90;;;;;;;;;;492658;28;1379;-81
2023/09/15 00:38:37;;;;;;;3.78;2.10;;;;;;;;;;490009;28;1366;-81
2023/09/15 00:38:54;;;;;;;3.77;2.00;;;;;;;;;;490645;28;1348;-81
2023/09/15 00:39:09;;;;;;;3.50;1.95;;;;;;;;;;495103;28;1523;-81
2023/09/15 00:39:25;;;;;;;3.55;2.03;;;;;;;;;;487403;28;1286;-81
2023/09/15 00:39:40;;;;;;;4.47;2.20;;;;;;;;;;487473;28;1359;-81
2023/09/15 00:39:57;;;;;;;4.03;2.00;;;;;;;;;;490294;28;1319;-81
2023/09/15 00:40:14;;;;;;;2.70;1.80;;;;;;;;;;490928;28;1457;-81
2023/09/15 00:40:30;;;;;;;4.53;1.95;;;;;;;;;;489290;28;1421;-81
2023/09/15 00:40:47;;;;;;;4.53;2.17;;;;;;;;;;490166;28;1178;-82
2023/09/15 00:41:03;;;;;;;2.90;2.00;;;;;;;;;;490959;28;1528;-81
2023/09/15 00:41:19;;;;;;;3.60;2.20;;;;;;;;;;495496;28;1264;-81
2023/09/15 00:41:34;;;;;;;3.30;2.17;;;;;;;;;;488150;28;1447;-82
2023/09/15 00:41:50;;;;;;;2.67;1.88;;;;;;;;;;488583;28;1387;-81
2023/09/15 00:42:06;;;;;;;3.70;2.00;;;;;;;;;;492102;28;1186;-81
2023/09/15 00:42:21;;;;;;;3.83;1.98;;;;;;;;;;492962;28;1253;-81
2023/09/15 00:42:37;;;;;;;3.55;1.90;;;;;;;;;;489986;28;1378;-81
2023/09/15 00:42:53;;;;;;;3.33;1.85;;;;;;;;;;488365;28;1338;-81
2023/09/15 00:43:08;;;;;;;3.20;1.80;;;;;;;;;;495006;28;1307;-81
2023/09/15 00:43:24;;;;;;;3.63;1.95;;;;;;;;;;492151;28;1629;-81
2023/09/15 00:43:41;;;;;;;3.17;1.90;;;;;;;;;;490664;28;1227;-81
2023/09/15 00:43:57;;;;;;;3.10;1.80;;;;;;;;;;489277;28;1208;-81
2023/09/15 00:44:14;;;;;;;3.72;1.80;;;;;;;;;;496182;28;1114;-81
2023/09/15 00:44:30;;;;;;;4.30;2.08;;;;;;;;;;489726;28;1295;-80
2023/09/15 00:44:46;;;;;;;4.50;2.00;;;;;;;;;;488586;28;1234;-81
2023/09/15 00:45:05;;;;;;;4.05;1.90;;;;;;;;;;489395;28;1291;-81
2023/09/15 00:45:22;;;;;;;4.47;2.00;;;;;;;;;;487978;28;1256;-81
2023/09/15 00:45:38;;;;;;;4.53;2.03;;;;;;;;;;481737;28;1346;-81
2023/09/15 00:45:55;;;;;;;3.40;1.90;;;;;;;;;;484330;28;1322;-81
2023/09/15 00:46:11;;;;;;;3.55;1.92;;;;;;;;;;489202;28;1184;-81
2023/09/15 00:46:26;;;;;;;3.55;2.05;;;;;;;;;;486065;28;1278;-81
2023/09/15 00:46:42;;;;;;;4.05;2.08;;;;;;;;;;480540;28;2009;-81
2023/09/15 00:46:58;;;;;;;3.63;1.90;;;;;;;;;;481776;28;1487;-81
2023/09/15 00:47:15;;;;;;;3.85;1.98;;;;;;;;;;491088;28;1369;-82
2023/09/15 00:47:33;;;;;;;4.00;2.20;;;;;;;;;;486310;28;1146;-81
2023/09/15 00:47:53;;;;;;;4.47;2.05;;;;;;;;;;481630;28;1425;-81
2023/09/15 00:48:09;;;;;;;3.53;2.00;;;;;;;;;;486384;28;1055;-81
2023/09/15 00:48:26;;;;;;;3.30;2.10;;;;;;;;;;484263;28;1221;-81
2023/09/15 00:48:45;;;;;;;3.65;2.00;;;;;;;;;;484478;28;1293;-81
2023/09/15 00:49:01;;;;;;;3.78;2.00;;;;;;;;;;486315;28;1153;-81
2023/09/15 00:49:17;;;;;;;3.97;1.90;;;;;;;;;;491166;28;1342;-81
2023/09/15 00:49:34;;;;;;;3.38;1.80;;;;;;;;;;480271;28;1230;-81
2023/09/15 00:49:50;;;;;;;3.08;1.83;;;;;;;;;;482112;28;1119;-81
2023/09/15 00:50:06;;;;;;;2.40;1.80;;;;;;;;;;482379;28;1248;-81
2023/09/15 00:50:28;;;;;;;2.00;1.70;;;;;;;;;;489855;28;1545;-81
2023/09/15 00:50:45;;;;;;;2.15;1.73;;;;;;;;;;483499;28;1506;-81
2023/09/15 00:51:06;;;;;;;3.83;2.03;;;;;;;;;;483804;28;1091;-81
2023/09/15 00:51:23;;;;;;;4.22;2.30;;;;;;;;;;488050;28;1334;-81
2023/09/15 00:51:39;;;;;;;4.55;2.05;;;;;;;;;;481181;28;1279;-80
2023/09/15 00:51:55;;;;;;;5.23;2.13;;;;;;;;;;481584;28;1335;-81
2023/09/15 00:52:11;;;;;;;3.80;2.10;;;;;;;;;;486636;28;1366;-82
2023/09/15 00:52:27;;;;;;;2.97;1.80;;;;;;;;;;483944;28;1349;-81
2023/09/15 00:53:00;;;;;;;3.53;1.92;;;;;;;;;;483184;28;1498;-75
2023/09/15 00:53:20;;;;;;;4.00;2.00;;;;;;;;;;490837;28;1114;-75
2023/09/15 00:53:38;;;;;;;3.00;2.08;;;;;;;;;;477652;28;1212;-76
2023/09/15 00:53:56;;;;;;;4.57;2.20;;;;;;;;;;475976;29;1241;-76
2023/09/15 00:54:12;;;;;;;4.03;2.05;;;;;;;;;;482137;29;1220;-75
2023/09/15 00:54:29;;;;;;;4.80;2.00;;;;;;;;;;485102;28;1293;-76
2023/09/15 00:54:45;;;;;;;4.45;1.90;;;;;;;;;;482909;28;1170;-76
2023/09/15 00:55:03;;;;;;;4.47;1.83;;;;;;;;;;485912;28;1214;-76
2023/09/15 00:55:21;;;;;;;4.47;1.90;;;;;;;;;;486020;28;1146;-76
2023/09/15 00:55:38;;;;;;;3.28;1.90;;;;;;;;;;477343;28;1522;-76
2023/09/15 00:55:54;;;;;;;4.43;2.00;;;;;;;;;;476514;28;1381;-76
2023/09/15 00:56:10;;;;;;;4.57;2.03;;;;;;;;;;483505;28;1537;-75
2023/09/15 00:56:26;;;;;;;3.90;2.00;;;;;;;;;;483519;28;1353;-76
2023/09/15 00:56:42;;;;;;;3.80;2.20;;;;;;;;;;481872;28;1338;-76
2023/09/15 00:56:59;;;;;;;5.20;2.20;;;;;;;;;;484293;28;1794;-75
2023/09/15 00:57:15;;;;;;;5.10;2.00;;;;;;;;;;489486;28;1271;-76
2023/09/15 00:57:32;;;;;;;2.95;1.95;;;;;;;;;;481865;28;1281;-76
2023/09/15 00:57:53;;;;;;;3.67;1.95;;;;;;;;;;483863;28;1542;-75
2023/09/15 00:58:11;;;;;;;3.70;1.95;;;;;;;;;;485103;28;1467;-75
2023/09/15 00:58:27;;;;;;;3.70;2.00;;;;;;;;;;482743;28;1275;-75
2023/09/15 00:58:44;;;;;;;3.55;1.85;;;;;;;;;;484661;28;1391;-76
2023/09/15 00:59:00;;;;;;;2.75;1.80;;;;;;;;;;484771;28;1245;-76
2023/09/15 00:59:17;;;;;;;2.67;1.90;;;;;;;;;;494602;28;1317;-75
2023/09/15 00:59:33;;;;;;;3.88;2.00;;;;;;;;;;486312;28;1172;-76
2023/09/15 00:59:49;;;;;;;3.83;1.90;;;;;;;;;;488968;28;1322;-75
2023/09/15 01:00:14;;;;;;;3.17;1.87;;;;;;;;;;489757;28;1365;-82
2023/09/15 01:00:30;;;;;;;3.53;1.90;;;;;;;;;;482051;28;1299;-75
2023/09/15 01:00:47;;;;;;;3.47;2.00;;;;;;;;;;485341;28;1446;-76
2023/09/15 01:01:06;;;;;;;3.40;1.90;;;;;;;;;;484694;28;1509;-76
2023/09/15 01:01:22;;;;;;;2.22;1.77;;;;;;;;;;486512;28;1333;-76
2023/09/15 01:01:39;;;;;;;2.78;1.85;;;;;;;;;;483512;28;1414;-76
2023/09/15 01:01:56;;;;;;;4.13;1.90;;;;;;;;;;483431;28;1276;-75
2023/09/15 01:02:13;;;;;;;3.65;1.90;;;;;;;;;;487695;28;1177;-76
2023/09/15 01:02:29;;;;;;;3.03;1.77;;;;;;;;;;483279;28;1296;-76
2023/09/15 01:02:45;;;;;;;3.60;1.73;;;;;;;;;;484377;28;1359;-75
2023/09/15 01:03:02;;;;;;;3.78;1.80;;;;;;;;;;484242;28;1355;-76
2023/09/15 01:03:21;;;;;;;3.22;1.80;;;;;;;;;;487416;28;1482;-76
2023/09/15 01:03:41;;;;;;;3.90;1.98;;;;;;;;;;479630;28;1613;-76
2023/09/15 01:03:57;;;;;;;3.92;1.90;;;;;;;;;;480207;28;1379;-76
2023/09/15 01:04:13;;;;;;;4.15;2.00;;;;;;;;;;487144;28;1066;-75
2023/09/15 01:04:31;;;;;;;3.38;1.90;;;;;;;;;;482792;28;1235;-76
2023/09/15 01:04:47;;;;;;;4.47;1.80;;;;;;;;;;482277;28;1367;-76
2023/09/15 01:05:03;;;;;;;3.95;1.73;;;;;;;;;;481813;28;933;-76
2023/09/15 01:05:23;;;;;;;4.03;1.80;;;;;;;;;;488028;28;1320;-76
2023/09/15 01:05:40;;;;;;;4.00;1.83;;;;;;;;;;481132;28;1255;-76
2023/09/15 01:05:56;;;;;;;2.75;1.70;;;;;;;;;;483663;28;1283;-76
2023/09/15 01:06:13;;;;;;;3.25;1.90;;;;;;;;;;489393;28;1277;-75
2023/09/15 01:06:30;;;;;;;3.45;2.10;;;;;;;;;;481602;28;1303;-75
2023/09/15 01:06:49;;;;;;;3.53;1.92;;;;;;;;;;482308;28;1934;-75
2023/09/15 01:07:05;;;;;;;4.95;1.90;;;;;;;;;;482302;28;1200;-76
2023/09/15 01:07:21;;;;;;;4.47;1.90;;;;;;;;;;489129;28;1274;-76
2023/09/15 01:07:37;;;;;;;3.17;1.88;;;;;;;;;;481921;28;1164;-76
2023/09/15 01:07:53;;;;;;;3.30;1.90;;;;;;;;;;480401;28;1312;-76
2023/09/15 01:08:10;;;;;;;3.08;1.80;;;;;;;;;;486974;28;1298;-75
2023/09/15 01:08:27;;;;;;;2.90;1.70;;;;;;;;;;490760;28;1268;-76
2023/09/15 01:08:43;;;;;;;3.28;1.92;;;;;;;;;;493744;28;1331;-76
2023/09/15 01:08:58;;;;;;;3.60;2.10;;;;;;;;;;488626;28;1191;-76
2023/09/15 01:09:14;;;;;;;3.55;2.03;;;;;;;;;;491792;28;1264;-75
2023/09/15 01:09:31;;;;;;;3.35;1.95;;;;;;;;;;478068;28;1454;-75
2023/09/15 01:09:46;;;;;;;3.45;1.95;;;;;;;;;;482606;28;1269;-76
2023/09/15 01:10:07;;;;;;;3.58;1.98;;;;;;;;;;481993;28;1370;-76
2023/09/15 01:10:24;;;;;;;3.50;2.00;;;;;;;;;;483871;28;1241;-75
2023/09/15 01:10:39;;;;;;;3.10;1.88;;;;;;;;;;479268;28;1328;-76
2023/09/15 01:10:55;;;;;;;2.90;1.80;;;;;;;;;;482427;28;1071;-76
2023/09/15 01:11:11;;;;;;;2.83;1.83;;;;;;;;;;489824;28;1105;-76
2023/09/15 01:11:27;;;;;;;3.17;1.87;;;;;;;;;;485890;28;1165;-76
2023/09/15 01:11:42;;;;;;;4.07;2.05;;;;;;;;;;482462;28;1233;-76
2023/09/15 01:11:58;;;;;;;4.20;2.10;;;;;;;;;;482250;28;1058;-76
2023/09/15 01:12:14;;;;;;;4.10;1.90;;;;;;;;;;490556;28;1237;-76
2023/09/15 01:12:32;;;;;;;4.30;1.85;;;;;;;;;;481695;28;1291;-76
2023/09/15 01:12:49;;;;;;;3.90;1.85;;;;;;;;;;480082;28;1376;-76
2023/09/15 01:13:06;;;;;;;4.65;2.00;;;;;;;;;;482276;28;1360;-75
2023/09/15 01:13:22;;;;;;;4.90;1.90;;;;;;;;;;488432;28;1450;-75
2023/09/15 01:13:40;;;;;;;2.97;1.80;;;;;;;;;;481926;28;1437;-76
2023/09/15 01:13:57;;;;;;;2.83;1.88;;;;;;;;;;481552;28;1183;-76
2023/09/15 01:14:12;;;;;;;3.53;2.00;;;;;;;;;;480536;29;1330;-76
2023/09/15 01:14:28;;;;;;;3.50;2.00;;;;;;;;;;480842;28;1351;-76
2023/09/15 01:14:45;;;;;;;2.90;1.90;;;;;;;;;;483926;28;1274;-76
2023/09/15 01:15:02;;;;;;;3.53;2.00;;;;;;;;;;483250;28;1302;-76
2023/09/15 01:15:19;;;;;;;3.55;1.90;;;;;;;;;;490053;28;1387;-76
2023/09/15 01:16:05;;;;;;;3.25;1.90;;;;;;;;;;481782;28;1129;-76
2023/09/15 01:16:38;;;;;;;3.78;2.00;;;;;;;;;;482335;28;1464;-76
2023/09/15 01:17:12;;;;;;;3.72;1.80;;;;;;;;;;476263;28;1272;-75
2023/09/15 01:17:39;;;;;;;4.15;1.90;;;;;;;;;;485537;28;1307;-76
2023/09/15 01:18:07;;;;;;;4.45;2.03;;;;;;;;;;485284;28;1169;-76
2023/09/15 01:18:33;;;;;;;4.63;2.08;;;;;;;;;;488310;28;1252;-76
2023/09/15 01:18:54;;;;;;;4.32;2.10;;;;;;;;;;486194;28;1027;-76
2023/09/15 01:19:36;;;;;;;4.60;2.10;;;;;;;;;;491311;28;1324;-76
2023/09/15 01:20:09;;;;;;;3.75;1.90;;;;;;;;;;475723;29;1350;-74
2023/09/15 01:20:37;;;;;;;4.35;1.88;;;;;;;;;;478886;29;1152;-74
2023/09/15 01:21:01;;;;;;;2.92;1.80;;;;;;;;;;482490;28;1071;-74
2023/09/15 01:22:02;;;;;;;4.22;1.92;;;;;;;;;;493950;28;995;-74
2023/09/15 01:23:00;;;;;;;3.35;2.00;;;;;;;;;;493973;28;1083;-74
2023/09/15 01:23:51;;;;;;;3.83;2.05;;;;;;;;;;491821;28;1272;-73
2023/09/15 01:24:26;;;;;;;3.55;1.90;;;;;;;;;;487852;28;1409;-74
2023/09/15 01:25:12;;;;;;;4.13;2.10;;;;;;;;;;489497;28;1333;-74
2023/09/15 01:25:52;;;;;;;3.58;2.00;;;;;;;;;;485532;28;1237;-73
2023/09/15 01:26:26;;;;;;;4.60;2.30;;;;;;;;;;492165;28;1457;-74
2023/09/15 01:26:53;;;;;;;3.42;1.90;;;;;;;;;;485524;28;2016;-74
2023/09/15 01:27:14;;;;;;;4.80;2.10;;;;;;;;;;490022;28;1398;-74
2023/09/15 01:27:42;;;;;;;3.30;1.88;;;;;;;;;;482549;28;1144;-74
2023/09/15 01:28:11;;;;;;;3.83;2.03;;;;;;;;;;480421;28;1226;-74
2023/09/15 01:29:18;;;;;;;5.30;2.20;;;;;;;;;;482730;28;1494;-73
2023/09/15 01:29:43;;;;;;;3.60;2.10;;;;;;;;;;479768;28;1861;-74
2023/09/15 01:30:02;;;;;;;3.30;2.15;;;;;;;;;;481079;28;1354;-74
2023/09/15 01:30:19;;;;;;;3.92;2.20;;;;;;;;;;487743;28;1296;-74
2023/09/15 01:30:36;;;;;;;4.55;2.05;;;;;;;;;;479521;28;1406;-74
2023/09/15 01:30:52;;;;;;;3.60;1.80;;;;;;;;;;476452;28;1503;-73
2023/09/15 01:31:09;;;;;;;3.47;1.90;;;;;;;;;;482514;28;1257;-73
2023/09/15 01:31:27;;;;;;;3.58;2.03;;;;;;;;;;481270;28;1307;-74
2023/09/15 01:31:43;;;;;;;3.08;2.00;;;;;;;;;;480342;28;1404;-74
2023/09/15 01:32:01;;;;;;;3.90;2.03;;;;;;;;;;482206;28;1040;-74
2023/09/15 01:32:19;;;;;;;4.80;2.13;;;;;;;;;;487730;28;1014;-74
2023/09/15 01:32:36;;;;;;;3.53;2.08;;;;;;;;;;479730;28;1256;-76
2023/09/15 01:32:55;;;;;;;4.80;2.10;;;;;;;;;;478648;28;1252;-76
2023/09/15 01:33:13;;;;;;;4.40;2.00;;;;;;;;;;488484;28;1152;-75
2023/09/15 01:33:30;;;;;;;4.38;2.10;;;;;;;;;;480793;28;1089;-76
2023/09/15 01:33:46;;;;;;;4.68;2.13;;;;;;;;;;481131;28;1545;-76
2023/09/15 01:34:02;;;;;;;3.90;2.00;;;;;;;;;;480425;28;1147;-76
2023/09/15 01:34:18;;;;;;;3.88;2.08;;;;;;;;;;486616;28;1284;-76
2023/09/15 01:34:37;;;;;;;4.00;2.07;;;;;;;;;;479390;28;1277;-76
2023/09/15 01:34:54;;;;;;;4.22;2.03;;;;;;;;;;479735;28;1093;-76
2023/09/15 01:35:10;;;;;;;3.53;1.80;;;;;;;;;;488556;28;1538;-76
2023/09/15 01:35:26;;;;;;;3.97;1.93;;;;;;;;;;483889;28;1391;-75
2023/09/15 01:35:41;;;;;;;4.78;2.13;;;;;;;;;;480329;28;1317;-76
2023/09/15 01:35:57;;;;;;;4.00;2.03;;;;;;;;;;479186;28;1241;-76
2023/09/15 01:36:13;;;;;;;3.75;2.03;;;;;;;;;;489061;28;1150;-76
2023/09/15 01:36:29;;;;;;;5.23;2.10;;;;;;;;;;479623;28;1323;-76
2023/09/15 01:36:44;;;;;;;4.05;1.98;;;;;;;;;;479375;28;1188;-76
2023/09/15 01:37:00;;;;;;;2.58;1.80;;;;;;;;;;481653;28;1384;-76
2023/09/15 01:37:16;;;;;;;3.42;2.00;;;;;;;;;;490036;28;1386;-77
2023/09/15 01:37:32;;;;;;;3.97;2.20;;;;;;;;;;481910;28;1200;-76
2023/09/15 01:37:48;;;;;;;3.80;2.20;;;;;;;;;;484403;28;1364;-75
2023/09/15 01:38:03;;;;;;;3.20;1.93;;;;;;;;;;484778;28;1189;-76
2023/09/15 01:38:19;;;;;;;3.25;1.95;;;;;;;;;;492600;28;1129;-76
2023/09/15 01:38:34;;;;;;;4.20;2.10;;;;;;;;;;487727;28;1152;-76
2023/09/15 01:38:50;;;;;;;3.95;2.17;;;;;;;;;;486317;28;1202;-76
2023/09/15 01:39:06;;;;;;;3.35;2.13;;;;;;;;;;489236;28;1316;-76
2023/09/15 01:39:21;;;;;;;3.50;2.00;;;;;;;;;;490294;28;1160;-76
2023/09/15 01:39:38;;;;;;;3.30;1.90;;;;;;;;;;482029;28;1335;-76
2023/09/15 01:39:54;;;;;;;3.55;2.03;;;;;;;;;;482579;28;1350;-76
2023/09/15 01:40:10;;;;;;;4.30;2.10;;;;;;;;;;487507;28;1197;-76
2023/09/15 01:40:26;;;;;;;4.38;2.10;;;;;;;;;;484336;28;1265;-76
2023/09/15 01:40:43;;;;;;;4.38;2.20;;;;;;;;;;485822;28;1242;-76
2023/09/15 01:41:00;;;;;;;4.55;2.10;;;;;;;;;;481720;28;1332;-76
2023/09/15 01:41:16;;;;;;;4.25;2.10;;;;;;;;;;491422;28;1428;-76
2023/09/15 01:41:32;;;;;;;5.00;2.08;;;;;;;;;;480363;28;1185;-76
2023/09/15 01:41:48;;;;;;;4.72;2.00;;;;;;;;;;479494;28;1422;-75
2023/09/15 01:42:04;;;;;;;4.53;2.00;;;;;;;;;;480681;28;1162;-75
2023/09/15 01:42:20;;;;;;;4.68;2.10;;;;;;;;;;485854;28;1281;-76
2023/09/15 01:42:35;;;;;;;3.38;1.92;;;;;;;;;;480573;28;1446;-76
2023/09/15 01:42:54;;;;;;;2.97;1.90;;;;;;;;;;480599;28;1298;-75
2023/09/15 01:43:10;;;;;;;2.50;1.88;;;;;;;;;;489129;28;1282;-75
2023/09/15 01:43:27;;;;;;;3.43;1.90;;;;;;;;;;483470;28;1390;-76
2023/09/15 01:43:43;;;;;;;3.83;1.95;;;;;;;;;;482377;28;1003;-76
2023/09/15 01:43:58;;;;;;;3.30;1.90;;;;;;;;;;484026;28;1247;-76
2023/09/15 01:44:14;;;;;;;4.45;2.00;;;;;;;;;;495004;28;1185;-75
2023/09/15 01:44:30;;;;;;;5.27;2.07;;;;;;;;;;483148;28;1185;-76
2023/09/15 01:44:46;;;;;;;4.00;2.00;;;;;;;;;;485430;28;1109;-76
2023/09/15 01:45:01;;;;;;;2.83;2.00;;;;;;;;;;484432;28;1276;-76
2023/09/15 01:45:17;;;;;;;3.20;2.10;;;;;;;;;;493561;28;1484;-76
2023/09/15 01:45:32;;;;;;;3.27;2.10;;;;;;;;;;483545;28;1242;-76
2023/09/15 01:45:48;;;;;;;4.45;2.20;;;;;;;;;;482235;28;1252;-75
2023/09/15 01:46:04;;;;;;;4.20;2.10;;;;;;;;;;483195;28;1356;-76
2023/09/15 01:46:23;;;;;;;3.15;1.98;;;;;;;;;;485576;28;1139;-76
2023/09/15 01:46:39;;;;;;;4.03;2.10;;;;;;;;;;481906;28;1948;-76
2023/09/15 01:46:54;;;;;;;3.55;2.10;;;;;;;;;;481523;28;1001;-75
2023/09/15 01:47:15;;;;;;;4.50;2.20;;;;;;;;;;486725;28;1189;-75
2023/09/15 01:47:32;;;;;;;4.45;2.17;;;;;;;;;;480415;28;1286;-76
2023/09/15 01:47:48;;;;;;;4.85;2.17;;;;;;;;;;483807;28;1279;-76
2023/09/15 01:48:05;;;;;;;4.90;2.00;;;;;;;;;;483241;28;1214;-76
2023/09/15 01:48:24;;;;;;;4.95;2.10;;;;;;;;;;490787;28;1316;-76
2023/09/15 01:48:40;;;;;;;4.05;2.10;;;;;;;;;;481216;28;1415;-76
2023/09/15 01:48:59;;;;;;;4.07;2.25;;;;;;;;;;481538;28;1470;-75
2023/09/15 01:49:17;;;;;;;4.75;2.40;;;;;;;;;;490526;28;1273;-76
2023/09/15 01:49:33;;;;;;;4.18;2.20;;;;;;;;;;482073;28;1345;-76
2023/09/15 01:49:52;;;;;;;4.88;2.10;;;;;;;;;;482153;28;1028;-76
2023/09/15 01:50:09;;;;;;;4.30;2.33;;;;;;;;;;479850;28;1639;-76
2023/09/15 01:50:26;;;;;;;4.78;2.30;;;;;;;;;;488851;28;1318;-75
2023/09/15 01:50:42;;;;;;;4.18;2.20;;;;;;;;;;485554;28;1286;-76
2023/09/15 01:50:59;;;;;;;4.20;2.22;;;;;;;;;;483451;28;1351;-76
2023/09/15 01:51:15;;;;;;;4.30;2.30;;;;;;;;;;492404;28;1246;-76